CYPG

Portage La Prairie Airport

Portage, , Canada
METAR CYPG 202200Z 22010KT 12SM FEW055 FEW220 15/01 A3029 RMK CU2CS1 LAST OBS/NEXT 231100 UTC SLP267
Observed Flight Rules
Apr-20 @ 22:00 UTC (6 hours ago) Visual Flight Rules
Wind Visibility Clouds
220° at 10 knots 12 miles
  • Few at 5,500' AGL
  • Few at 22,000' AGL
Temperatures Readings
Current 15°C / 59°F
Dewpoint 1°C / 34°F
Humidity 39%
Altimeter 30.29" Hg
Pressure 1026.7 hPa
Elevation 269
METAR CYPG 202200Z 22010KT 12SM FEW055 FEW220 15/01 A3029 RMK CU2CS1 LAST OBS/NEXT 231100 UTC SLP267
Observed Flight Rules
Apr-20 @ 22:00 UTC
(6 hours ago)
VFR
Wind Visibility
220° at 10 knots 12 miles
Clouds
  • Few at 5,500' AGL
  • Few at 22,000' AGL
Temperature Dewpoint
15°C / 59°F 1°C / 34°F
Humidity Altimeter Pressure
39% 30.29" Hg 1026.7 hPa